Time;durP1;ratioP1;P1;durP2;ratioP2;P2;SDS_P1;SDS_P2;PMS_P1;PMS_P2;Temp;Humidity;BMP_temperature;BMP_pressure;BME280_temperature;BME280_humidity;BME280_pressure;Samples;Min_cycle;Max_cycle;Signal;HPM_P1;HPM_P2
2022/02/06 00:02:27;;;;;;;28.80;4.55;;;7.60;99.90;;;;;;4991046;28;20056;-81
2022/02/06 00:04:53;;;;;;;22.13;3.30;;;7.60;99.90;;;;;;5010224;28;20087;-81
2022/02/06 00:07:19;;;;;;;31.27;4.93;;;7.60;99.90;;;;;;4999714;28;20140;-81
2022/02/06 00:09:46;;;;;;;33.78;5.22;;;7.70;99.90;;;;;;5012882;28;20060;-81
2022/02/06 00:12:13;;;;;;;35.80;4.95;;;7.90;99.90;;;;;;5011990;28;20765;-80
2022/02/06 00:14:41;;;;;;;32.50;4.82;;;7.70;99.90;;;;;;5009207;28;20067;-81
2022/02/06 00:17:08;;;;;;;24.42;4.20;;;8.20;99.90;;;;;;4980702;28;20034;-81
2022/02/06 00:19:35;;;;;;;24.90;4.43;;;7.70;99.90;;;;;;5007396;28;20068;-81
2022/02/06 00:22:06;;;;;;;26.40;5.38;;;7.80;99.90;;;;;;5005129;28;20037;-81
2022/02/06 00:24:44;;;;;;;37.10;4.70;;;7.70;99.90;;;;;;5005741;28;20389;-81
2022/02/06 00:27:12;;;;;;;28.25;4.88;;;7.70;99.90;;;;;;4988088;28;20120;-81
2022/02/06 00:29:59;;;;;;;33.28;5.47;;;7.80;99.90;;;;;;5007135;28;20041;-81
2022/02/06 00:32:33;;;;;;;29.67;4.57;;;7.80;99.90;;;;;;5007478;28;20045;-80
2022/02/06 00:35:23;;;;;;;25.13;3.97;;;7.80;99.90;;;;;;4993247;28;20044;-80
2022/02/06 00:41:08;;;;;;;27.92;4.05;;;7.80;99.90;;;;;;5005805;28;20065;-81
2022/02/06 00:43:28;;;;;;;35.77;4.40;;;7.80;99.90;;;;;;5010944;28;20064;-81
2022/02/06 00:45:54;;;;;;;31.98;5.07;;;7.80;99.90;;;;;;5010165;28;20792;-81
2022/02/06 00:48:24;;;;;;;36.63;5.10;;;7.90;99.90;;;;;;5009313;28;20037;-81
2022/02/06 00:51:05;;;;;;;26.25;4.10;;;7.80;99.90;;;;;;4992235;28;20041;-81
2022/02/06 00:53:30;;;;;;;25.50;4.32;;;7.80;99.90;;;;;;4990118;28;20037;-82
2022/02/06 00:55:57;;;;;;;27.30;4.60;;;7.80;99.90;;;;;;5008394;28;20449;-81
2022/02/06 00:58:25;;;;;;;40.72;5.57;;;7.90;99.90;;;;;;5028369;28;20460;-81
2022/02/06 01:00:50;;;;;;;24.80;4.28;;;7.80;99.90;;;;;;5006771;28;20049;-81
2022/02/06 01:03:16;;;;;;;31.65;4.63;;;7.80;99.90;;;;;;5011659;28;20052;-82
2022/02/06 01:05:42;;;;;;;38.15;5.30;;;7.90;99.90;;;;;;4990875;28;20077;-81
2022/02/06 01:08:27;;;;;;;28.30;4.80;;;7.80;99.90;;;;;;5006922;28;20052;-82
2022/02/06 01:10:53;;;;;;;40.20;6.53;;;7.90;99.90;;;;;;4994214;28;20155;-81
2022/02/06 01:13:33;;;;;;;34.22;5.22;;;7.70;99.90;;;;;;4993327;28;20059;-81
2022/02/06 01:16:21;;;;;;;27.23;3.85;;;7.90;99.90;;;;;;4996867;28;20445;-81
2022/02/06 01:18:57;;;;;;;38.80;5.38;;;7.80;99.90;;;;;;5009551;28;20160;-80
2022/02/06 01:24:40;;;;;;;30.55;5.03;;;7.90;99.90;;;;;;4945490;28;20126;-81
2022/02/06 01:27:20;;;;;;;;;;;7.90;99.90;;;;;;4942269;28;20069;-81
2022/02/06 01:32:41;;;;;;;39.67;4.97;;;7.90;99.90;;;;;;4927614;29;20103;-81
2022/02/06 01:35:21;;;;;;;29.25;4.82;;;7.90;99.90;;;;;;4927608;29;20066;-83
2022/02/06 01:43:22;;;;;;;41.13;5.68;;;7.90;99.90;;;;;;4858145;29;20045;-81
2022/02/06 02:27:52;;;;;;;25.13;4.00;;;8.00;99.90;;;;;;4949735;28;20102;-80
2022/02/06 02:47:43;;;;;;;29.30;4.22;;;7.90;99.90;;;;;;4801043;29;20050;-81
2022/02/06 02:54:35;;;;;;;40.63;4.82;;;7.30;99.90;;;;;;4800238;29;20475;-81
2022/02/06 02:58:01;;;;;;;;;;;;;;;;;;;;;
2022/02/06 03:01:30;;;;;;;27.58;4.10;;;7.90;99.90;;;;;;4735211;29;20504;-81
2022/02/06 03:04:50;;;;;;;;;;;;;;;;;;;;;
2022/02/06 03:07:54;;;;;;;17.60;3.33;;;8.40;99.90;;;;;;4695865;30;20137;-81
2022/02/06 03:10:57;;;;;;;;;;;;;;;;;;;;;
2022/02/06 03:13:49;;;;;;;24.20;4.15;;;8.00;99.90;;;;;;4747668;30;20060;-81
2022/02/06 03:26:06;;;;;;;24.33;3.78;;;7.90;99.90;;;;;;4767804;30;20120;-82
2022/02/06 03:29:18;;;;;;;31.52;3.80;;;7.40;99.90;;;;;;4760780;30;20047;-82
2022/02/06 03:35:35;;;;;;;41.60;5.22;;;7.90;99.90;;;;;;4831945;29;20080;-82
2022/02/06 03:38:40;;;;;;;22.50;3.17;;;8.00;99.90;;;;;;4913620;29;20464;-82
2022/02/06 03:51:18;;;;;;;35.50;4.75;;;7.90;99.90;;;;;;4912076;29;20156;-82
2022/02/06 03:53:53;;;;;;;33.05;4.25;;;7.90;99.90;;;;;;4912499;29;20059;-83
2022/02/06 03:56:20;;;;;;;24.20;4.22;;;8.70;99.90;;;;;;4912934;29;20170;-82
2022/02/06 03:58:57;;;;;;;36.13;4.68;;;8.70;99.90;;;;;;4901563;29;20043;-82
2022/02/06 04:01:29;;;;;;;30.52;4.30;;;7.90;99.90;;;;;;4933880;29;20130;-82
2022/02/06 04:04:08;;;;;;;33.95;3.83;;;8.40;99.90;;;;;;4951284;29;20133;-82
2022/02/06 04:06:45;;;;;;;24.83;4.13;;;8.00;99.90;;;;;;4934212;29;20044;-83
2022/02/06 04:09:21;;;;;;;32.17;3.63;;;7.90;99.90;;;;;;4933404;29;20126;-82
2022/02/06 04:12:02;;;;;;;40.42;5.47;;;7.80;99.90;;;;;;4934408;29;20112;-82
2022/02/06 04:15:10;;;;;;;;;;;;;;;;;;;;;
2022/02/06 04:18:12;;;;;;;26.92;3.30;;;8.00;99.90;;;;;;5003053;28;20038;-82
2022/02/06 04:21:13;;;;;;;31.42;5.55;;;7.70;99.90;;;;;;5001058;28;20074;-82
2022/02/06 04:31:26;;;;;;;;;;;8.00;99.90;;;;;;4867469;29;20483;-82
2022/02/06 04:43:57;;;;;;;23.58;3.67;;;8.70;99.90;;;;;;4847266;29;20468;-83
2022/02/06 05:12:56;;;;;;;24.73;3.65;;;8.20;99.90;;;;;;4995621;28;20050;-82
2022/02/06 05:32:10;;;;;;;;;;;;;;;;;;;;;
2022/02/06 05:35:17;;;;;;;24.50;3.78;;;8.10;99.90;;;;;;4950069;29;20126;-82
2022/02/06 05:41:39;;;;;;;25.75;3.33;;;8.00;99.90;;;;;;4951062;29;20062;-82
2022/02/06 05:44:30;;;;;;;29.50;3.83;;;8.80;99.90;;;;;;4913431;29;20436;-82
2022/02/06 05:47:29;;;;;;;27.95;2.92;;;8.10;99.90;;;;;;4870816;29;20052;-81
2022/02/06 05:50:19;;;;;;;16.70;2.70;;;7.60;99.90;;;;;;4843668;29;20053;-82
2022/02/06 05:52:46;;;;;;;24.35;3.33;;;8.10;99.90;;;;;;4820088;29;20085;-81
2022/02/06 05:55:15;;;;;;;22.73;2.83;;;9.00;99.90;;;;;;4838588;29;20062;-81
2022/02/06 05:58:09;;;;;;;30.20;3.53;;;8.30;99.90;;;;;;4836367;29;20570;-82
2022/02/06 06:00:54;;;;;;;25.77;3.63;;;8.70;99.90;;;;;;4836656;29;20049;-82
2022/02/06 06:03:59;;;;;;;26.77;3.28;;;8.10;99.90;;;;;;4824375;29;20042;-82
2022/02/06 06:06:49;;;;;;;19.70;3.42;;;7.60;99.90;;;;;;4819982;29;20054;-82
2022/02/06 06:09:35;;;;;;;16.55;2.70;;;8.20;99.90;;;;;;4833443;29;20044;-82
2022/02/06 06:12:46;;;;;;;18.23;2.80;;;8.80;99.90;;;;;;4832241;29;20044;-82
2022/02/06 06:15:43;;;;;;;22.50;3.47;;;8.00;99.90;;;;;;4869710;29;20057;-82
2022/02/06 06:19:01;;;;;;;20.35;3.67;;;8.20;99.90;;;;;;4857205;29;20057;-82
2022/02/06 06:21:47;;;;;;;24.13;3.60;;;7.50;99.90;;;;;;4837506;29;20068;-83
2022/02/06 06:24:52;;;;;;;23.27;3.30;;;8.30;99.90;;;;;;4908931;28;20123;-82
2022/02/06 06:27:25;;;;;;;22.80;2.97;;;7.80;99.90;;;;;;4941205;28;20074;-83
2022/02/06 06:30:08;;;;;;;31.58;3.95;;;8.10;99.90;;;;;;4952118;29;20963;-82
2022/02/06 06:33:23;;;;;;;34.00;4.35;;;8.00;99.90;;;;;;4950466;28;20034;-81
2022/02/06 06:36:50;;;;;;;20.98;3.63;;;7.60;99.90;;;;;;4936644;28;20043;-80
2022/02/06 06:39:45;;;;;;;26.02;3.40;;;8.10;99.90;;;;;;4939957;28;20043;-82
2022/02/06 06:42:39;;;;;;;24.27;3.45;;;8.60;99.90;;;;;;4943876;28;20095;-83
2022/02/06 06:45:26;;;;;;;31.48;4.32;;;8.20;99.90;;;;;;4977034;28;20053;-84
2022/02/06 06:48:10;;;;;;;23.40;3.22;;;8.20;99.90;;;;;;4977164;28;20620;-83
2022/02/06 06:50:55;;;;;;;19.55;2.53;;;8.20;99.90;;;;;;4976541;28;20733;-83
2022/02/06 06:54:12;;;;;;;25.10;2.53;;;8.40;99.90;;;;;;4987207;28;20100;-81
2022/02/06 06:57:00;;;;;;;29.23;3.35;;;8.10;99.90;;;;;;4960869;28;20054;-83
2022/02/06 06:59:44;;;;;;;21.15;3.85;;;8.60;99.90;;;;;;4961692;28;20061;-82
2022/02/06 07:04:59;;;;;;;19.90;3.88;;;8.70;99.90;;;;;;4975211;28;20082;-82
2022/02/06 07:07:26;;;;;;;23.88;3.42;;;8.00;99.90;;;;;;4986271;28;20042;-80
2022/02/06 07:09:52;;;;;;;19.45;3.00;;;8.70;99.90;;;;;;4976794;28;20066;-81
2022/02/06 07:12:18;;;;;;;20.55;2.80;;;8.10;99.90;;;;;;4974361;28;20172;-80
2022/02/06 07:14:51;;;;;;;21.58;3.85;;;8.90;99.90;;;;;;4967260;28;20443;-79
2022/02/06 07:17:38;;;;;;;23.40;3.13;;;8.10;99.90;;;;;;4986126;28;20115;-80
2022/02/06 07:20:38;;;;;;;20.20;3.88;;;8.10;99.90;;;;;;5026489;28;20050;-80
2022/02/06 07:27:22;;;;;;;27.17;4.20;;;8.10;99.90;;;;;;5030620;28;20377;-79
2022/02/06 07:30:18;;;;;;;20.50;3.47;;;8.10;99.90;;;;;;5009920;28;20089;-80
2022/02/06 07:33:21;;;;;;;24.65;3.13;;;8.30;99.90;;;;;;4997323;28;20045;-81
2022/02/06 07:36:18;;;;;;;23.08;2.80;;;8.10;99.90;;;;;;4937895;28;20046;-80
2022/02/06 07:46:36;;;;;;;16.52;2.97;;;7.50;99.90;;;;;;4954413;28;20115;-81
2022/02/06 07:49:35;;;;;;;19.77;2.78;;;7.90;99.90;;;;;;4952001;28;20147;-80
2022/02/06 07:52:15;;;;;;;22.08;2.45;;;8.30;99.90;;;;;;4909196;29;20043;-81
2022/02/06 07:54:49;;;;;;;23.10;3.80;;;7.90;99.90;;;;;;4926300;29;20051;-79
2022/02/06 07:57:30;;;;;;;33.05;3.22;;;8.10;99.90;;;;;;4937431;29;20070;-78
2022/02/06 08:00:08;;;;;;;30.48;4.38;;;9.00;99.90;;;;;;4920431;29;20047;-81
2022/02/06 08:02:40;;;;;;;29.02;3.70;;;8.10;99.90;;;;;;4900825;29;20059;-85
2022/02/06 08:05:06;;;;;;;28.35;3.38;;;8.70;99.90;;;;;;4899793;29;20154;-84
2022/02/06 08:07:32;;;;;;;26.50;3.75;;;8.00;99.90;;;;;;4910914;29;20087;-82
2022/02/06 08:10:00;;;;;;;26.98;3.10;;;8.00;99.90;;;;;;4913251;29;20035;-84
2022/02/06 08:12:30;;;;;;;23.58;3.08;;;7.90;99.90;;;;;;4925332;28;20061;-82
2022/02/06 08:15:07;;;;;;;24.95;3.90;;;8.00;99.90;;;;;;4953190;28;20050;-81
2022/02/06 08:17:38;;;;;;;28.52;3.33;;;8.00;99.90;;;;;;4996542;28;20137;-79
2022/02/06 08:20:12;;;;;;;23.50;3.15;;;8.00;99.90;;;;;;5012504;28;20132;-83
2022/02/06 08:22:45;;;;;;;29.73;4.88;;;8.10;99.90;;;;;;5009340;28;20132;-81
2022/02/06 08:25:17;;;;;;;24.63;3.53;;;8.70;99.90;;;;;;5011712;28;20037;-81
2022/02/06 08:27:51;;;;;;;30.40;3.95;;;8.00;99.90;;;;;;4995376;28;20056;-84
2022/02/06 08:33:46;;;;;;;24.35;3.63;;;8.00;99.90;;;;;;4971275;28;20047;-81
2022/02/06 08:36:15;;;;;;;28.35;3.10;;;8.10;99.90;;;;;;4934899;28;20062;-88
2022/02/06 08:38:46;;;;;;;31.13;4.00;;;8.70;99.90;;;;;;4956142;28;20057;-85
2022/02/06 08:42:03;;;;;;;22.35;3.40;;;8.00;99.90;;;;;;4947114;28;20039;-87
2022/02/06 08:44:22;;;;;;;31.17;3.90;;;8.10;99.90;;;;;;4964922;28;20414;-83
2022/02/06 08:46:47;;;;;;;25.13;3.13;;;8.90;99.90;;;;;;4952644;28;20066;-83
2022/02/06 08:49:14;;;;;;;33.33;4.05;;;8.30;99.90;;;;;;4964289;28;20038;-82
2022/02/06 08:51:40;;;;;;;29.30;3.70;;;8.60;99.90;;;;;;4936461;28;20065;-83
2022/02/06 08:54:06;;;;;;;29.13;3.97;;;8.60;99.90;;;;;;4954050;28;20106;-84
2022/02/06 08:56:38;;;;;;;29.08;3.78;;;8.00;99.90;;;;;;4956164;28;20088;-82
2022/02/06 08:59:04;;;;;;;23.00;3.13;;;8.00;99.90;;;;;;4961496;28;20074;-84
2022/02/06 09:02:06;;;;;;;30.98;3.47;;;8.00;99.90;;;;;;4946500;28;20042;-83
2022/02/06 09:04:33;;;;;;;34.72;3.92;;;8.20;99.90;;;;;;4947924;28;20054;-81
2022/02/06 09:07:09;;;;;;;28.15;3.63;;;8.30;99.90;;;;;;4947928;28;20407;-82
2022/02/06 09:09:38;;;;;;;26.05;3.75;;;7.90;99.90;;;;;;4956968;28;20048;-80
2022/02/06 09:12:10;;;;;;;;;;;7.80;99.90;;;;;;4995220;28;20133;-83
2022/02/06 09:14:39;;;;;;;21.55;3.58;;;8.10;99.90;;;;;;5028510;28;20027;-81
2022/02/06 09:17:06;;;;;;;23.90;2.92;;;8.00;99.90;;;;;;5010052;28;20159;-79
2022/02/06 09:19:34;;;;;;;19.95;2.75;;;8.10;99.90;;;;;;5010706;28;20037;-81
2022/02/06 09:22:00;;;;;;;15.23;2.25;;;8.10;99.90;;;;;;4993254;28;20057;-82
2022/02/06 09:24:26;;;;;;;23.05;2.65;;;8.30;99.90;;;;;;4994353;28;20499;-79
2022/02/06 09:26:51;;;;;;;14.77;2.25;;;8.10;99.90;;;;;;4995837;28;20056;-78
2022/02/06 09:29:17;;;;;;;14.90;2.30;;;8.10;99.90;;;;;;4994388;28;20136;-80
2022/02/06 09:31:49;;;;;;;19.27;2.30;;;8.10;99.90;;;;;;4993263;28;20045;-80
2022/02/06 09:36:40;;;;;;;19.48;2.47;;;8.20;99.90;;;;;;5011357;28;20697;-80
2022/02/06 09:39:11;;;;;;;14.65;2.40;;;8.10;99.90;;;;;;4996060;28;20041;-81
2022/02/06 09:41:38;;;;;;;17.95;2.67;;;8.20;99.90;;;;;;4992944;28;20050;-80
2022/02/06 09:44:06;;;;;;;21.75;3.10;;;8.20;99.90;;;;;;4991363;28;20041;-81
2022/02/06 09:46:34;;;;;;;15.55;2.70;;;8.20;99.90;;;;;;5011829;28;20041;-81
2022/02/06 09:49:01;;;;;;;16.75;2.80;;;8.40;99.90;;;;;;5017890;28;20042;-81
2022/02/06 09:51:27;;;;;;;20.23;3.35;;;8.20;99.90;;;;;;4993004;28;20183;-80
2022/02/06 09:53:53;;;;;;;14.25;2.45;;;8.40;99.90;;;;;;5013210;28;20124;-80
2022/02/06 09:56:22;;;;;;;19.70;3.30;;;8.10;99.90;;;;;;4997298;28;20033;-80
2022/02/06 10:01:16;;;;;;;16.33;2.78;;;8.20;99.90;;;;;;5010911;28;20111;-81
2022/02/06 10:04:05;;;;;;;22.70;3.47;;;8.20;99.90;;;;;;4996865;28;20050;-82
2022/02/06 10:06:51;;;;;;;18.25;3.05;;;8.10;99.90;;;;;;4995896;28;20112;-81
2022/02/06 10:09:27;;;;;;;20.27;2.88;;;8.10;99.90;;;;;;5017617;28;20144;-83
2022/02/06 10:11:57;;;;;;;21.42;3.53;;;8.20;99.90;;;;;;4987656;28;20057;-83
2022/02/06 10:14:28;;;;;;;21.55;3.40;;;7.90;99.90;;;;;;4998031;28;20387;-81
2022/02/06 10:16:54;;;;;;;15.75;2.83;;;8.00;99.90;;;;;;5013259;28;20045;-81
2022/02/06 10:19:22;;;;;;;15.57;2.83;;;8.30;99.90;;;;;;5014731;28;20094;-83
2022/02/06 10:21:48;;;;;;;8.88;1.92;;;8.00;99.90;;;;;;5013311;28;20038;-82
2022/02/06 10:24:26;;;;;;;6.93;1.05;;;8.00;99.90;;;;;;4997717;28;20087;-82
2022/02/06 10:27:16;;;;;;;4.70;0.90;;;7.70;99.90;;;;;;4974638;28;20129;-85
2022/02/06 10:38:05;;;;;;;7.25;1.10;;;6.50;99.90;;;;;;4845092;29;20105;-82
2022/02/06 10:41:32;;;;;;;8.63;0.90;;;6.80;99.90;;;;;;4773763;29;20061;-81
2022/02/06 10:44:11;;;;;;;10.40;0.95;;;6.80;99.90;;;;;;4802527;29;20050;-82
2022/02/06 10:46:56;;;;;;;8.43;1.25;;;6.80;99.90;;;;;;4790174;29;20054;-83
2022/02/06 10:50:06;;;;;;;5.00;1.35;;;6.80;99.90;;;;;;4771979;29;20117;-81
2022/02/06 10:57:14;;;;;;;9.30;1.35;;;6.50;99.90;;;;;;5147797;27;20162;-80
2022/02/06 10:59:43;;;;;;;6.25;0.80;;;6.50;99.90;;;;;;5124837;27;20054;-79
2022/02/06 11:02:31;;;;;;;4.57;0.70;;;6.50;99.90;;;;;;5132077;27;20122;-80
2022/02/06 11:05:14;;;;;;;6.15;0.75;;;6.50;99.90;;;;;;5107333;27;20114;-81
2022/02/06 11:07:57;;;;;;;5.00;0.88;;;6.40;99.90;;;;;;5110284;27;20134;-80
2022/02/06 11:10:25;;;;;;;3.08;0.40;;;6.40;99.90;;;;;;5125290;27;20347;-80
2022/02/06 11:12:53;;;;;;;7.53;1.08;;;6.30;99.90;;;;;;5129915;27;20536;-80
2022/02/06 11:15:31;;;;;;;10.77;0.88;;;6.30;99.90;;;;;;5130339;27;20046;-81
2022/02/06 11:18:08;;;;;;;3.40;0.80;;;6.40;99.90;;;;;;5130291;27;20074;-80
2022/02/06 11:20:35;;;;;;;7.50;1.02;;;6.70;99.90;;;;;;5102198;27;20032;-79
2022/02/06 11:23:18;;;;;;;8.35;0.70;;;6.30;99.90;;;;;;5108842;27;20047;-82
2022/02/06 11:26:18;;;;;;;;;;;;;;;;;;;;;
2022/02/06 11:29:40;;;;;;;12.32;1.00;;;6.20;99.90;;;;;;5060931;28;20011;-81
2022/02/06 11:32:49;;;;;;;8.65;0.85;;;6.10;99.90;;;;;;4991882;28;20092;-82
2022/02/06 11:36:09;;;;;;;7.10;0.87;;;6.20;99.90;;;;;;4969427;28;20106;-80
2022/02/06 11:45:36;;;;;;;3.33;0.45;;;6.20;99.90;;;;;;4920224;29;20099;-81
2022/02/06 11:48:08;;;;;;;3.33;0.60;;;7.30;99.90;;;;;;4908839;29;20044;-81
2022/02/06 11:50:53;;;;;;;1.67;0.30;;;6.80;99.90;;;;;;4931216;28;20086;-82
2022/02/06 11:54:11;;;;;;;7.55;0.73;;;6.30;99.90;;;;;;4946537;28;20065;-81
2022/02/06 11:56:52;;;;;;;2.53;0.50;;;6.30;99.90;;;;;;4911004;29;20059;-80
2022/02/06 11:59:32;;;;;;;5.57;0.65;;;7.00;99.90;;;;;;4910896;29;20048;-81
2022/02/06 12:02:27;;;;;;;4.93;0.63;;;6.30;99.90;;;;;;4910445;29;20044;-80
2022/02/06 12:05:14;;;;;;;2.08;0.50;;;6.60;99.90;;;;;;4882167;29;20044;-83
2022/02/06 12:07:51;;;;;;;5.85;0.55;;;6.30;99.90;;;;;;4916941;28;20510;-82
2022/02/06 12:10:40;;;;;;;4.13;0.60;;;6.30;99.90;;;;;;4954619;28;20073;-82
2022/02/06 12:13:38;;;;;;;3.75;0.60;;;6.20;99.90;;;;;;4968587;28;20058;-81
2022/02/06 12:16:06;;;;;;;3.25;0.65;;;6.40;99.90;;;;;;4970386;28;20402;-81
2022/02/06 12:18:41;;;;;;;5.18;0.80;;;6.40;99.90;;;;;;4954081;28;20051;-82
2022/02/06 12:21:21;;;;;;;3.42;0.60;;;6.40;99.90;;;;;;4952999;28;20162;-82
2022/02/06 12:24:06;;;;;;;2.42;0.60;;;6.50;99.90;;;;;;5006175;28;20048;-82
2022/02/06 12:26:45;;;;;;;4.07;0.68;;;6.40;99.90;;;;;;5078912;27;20047;-81
2022/02/06 12:29:22;;;;;;;5.97;0.55;;;6.50;99.90;;;;;;5104806;28;20097;-81
2022/02/06 12:32:00;;;;;;;3.33;0.40;;;6.60;99.90;;;;;;5099336;28;20043;-82
2022/02/06 12:37:32;;;;;;;9.73;0.77;;;6.70;99.90;;;;;;5115767;27;20075;-82
2022/02/06 12:40:29;;;;;;;4.85;1.00;;;7.30;99.90;;;;;;5100455;27;20046;-81
2022/02/06 12:43:02;;;;;;;8.02;0.70;;;6.80;99.90;;;;;;5087973;28;20067;-81
2022/02/06 12:45:34;;;;;;;4.90;0.90;;;7.00;99.90;;;;;;5083755;27;20027;-82
2022/02/06 12:48:12;;;;;;;8.90;1.08;;;7.10;99.90;;;;;;5083714;28;20035;-82
2022/02/06 12:50:41;;;;;;;8.82;1.25;;;6.80;99.90;;;;;;5078957;28;20043;-81
2022/02/06 12:53:17;;;;;;;11.82;1.40;;;6.80;99.90;;;;;;5083429;27;20050;-82
2022/02/06 12:55:48;;;;;;;12.48;1.48;;;6.90;99.90;;;;;;5097365;27;20124;-81
2022/02/06 12:58:17;;;;;;;14.45;1.30;;;6.90;99.90;;;;;;5085483;28;20031;-81
2022/02/06 13:00:50;;;;;;;9.50;1.05;;;7.00;99.90;;;;;;5079112;28;20036;-81
2022/02/06 13:03:30;;;;;;;10.32;1.38;;;7.00;99.90;;;;;;5096858;27;20447;-81
2022/02/06 13:06:21;;;;;;;11.45;1.50;;;7.00;99.90;;;;;;5093824;28;20104;-81
2022/02/06 13:23:07;;;;;;;10.65;1.58;;;7.20;99.90;;;;;;4999861;28;20144;-81
2022/02/06 13:26:50;;;;;;;6.43;1.65;;;7.20;99.90;;;;;;4939754;29;20122;-81
2022/02/06 13:30:42;;;;;;;11.48;1.92;;;7.40;99.90;;;;;;4946077;28;20051;-81
2022/02/06 13:36:38;;;;;;;9.27;1.50;;;7.50;99.90;;;;;;4894875;29;20205;-81
2022/02/06 13:43:05;;;;;;;12.30;1.90;;;7.60;99.90;;;;;;4802990;29;20459;-81
2022/02/06 13:46:59;;;;;;;;;;;;;;;;;;;;;
2022/02/06 13:49:35;;;;;;;13.38;1.67;;;7.20;99.90;;;;;;4765915;30;20193;-81
2022/02/06 13:52:25;;;;;;;15.80;2.05;;;8.20;99.90;;;;;;4766503;30;20416;-81
2022/02/06 13:55:23;;;;;;;14.63;1.88;;;8.20;99.90;;;;;;4801877;29;20573;-82
2022/02/06 13:58:21;;;;;;;10.18;1.95;;;8.30;99.90;;;;;;4803094;29;20180;-83
2022/02/06 14:00:59;;;;;;;9.35;1.17;;;8.50;99.90;;;;;;4805711;29;20074;-82
2022/02/06 14:03:47;;;;;;;14.00;1.90;;;9.00;99.90;;;;;;4838360;29;20110;-81
2022/02/06 14:06:24;;;;;;;7.60;1.65;;;8.50;99.90;;;;;;4836646;29;20137;-82
2022/02/06 14:12:20;;;;;;;12.00;1.52;;;8.40;99.90;;;;;;4932274;28;20042;-81
2022/02/06 14:14:58;;;;;;;14.50;1.90;;;8.40;99.90;;;;;;4969718;28;20100;-81
2022/02/06 14:18:11;;;;;;;11.88;1.73;;;8.40;99.90;;;;;;5007593;28;20037;-80
2022/02/06 14:21:12;;;;;;;13.00;1.70;;;8.30;99.90;;;;;;4928288;28;20050;-81
2022/02/06 14:24:07;;;;;;;11.63;1.60;;;8.20;99.90;;;;;;4912553;29;20055;-81
2022/02/06 14:27:33;;;;;;;;;;;;;;;;;;;;;
2022/02/06 14:30:52;;;;;;;17.30;2.08;;;7.50;99.90;;;;;;4970430;28;20054;-82
2022/02/06 14:33:43;;;;;;;12.02;1.80;;;8.00;99.90;;;;;;4972478;28;20077;-79
2022/02/06 14:36:22;;;;;;;7.78;1.38;;;8.10;99.90;;;;;;4972045;28;20038;-78
2022/02/06 14:39:01;;;;;;;14.25;2.08;;;8.00;99.90;;;;;;4968042;28;20597;-78
2022/02/06 14:41:39;;;;;;;10.80;2.53;;;7.90;99.90;;;;;;4961286;28;20058;-79
2022/02/06 14:44:26;;;;;;;15.68;2.17;;;7.70;99.90;;;;;;4985027;28;20141;-79
2022/02/06 14:46:58;;;;;;;11.17;1.77;;;8.80;99.90;;;;;;4984278;28;20100;-80
2022/02/06 14:49:34;;;;;;;13.32;2.28;;;8.10;99.90;;;;;;4986832;28;20049;-80
2022/02/06 14:52:09;;;;;;;14.65;1.77;;;7.90;99.90;;;;;;4969269;28;20130;-81
2022/02/06 14:54:45;;;;;;;12.07;1.70;;;7.70;99.90;;;;;;4963729;28;20126;-80
2022/02/06 15:00:23;;;;;;;6.10;1.10;;;7.60;99.90;;;;;;5063810;28;20439;-79
2022/02/06 15:02:52;;;;;;;1.45;0.47;;;5.90;99.90;;;;;;5049814;28;20036;-78
2022/02/06 15:05:23;;;;;;;4.07;0.57;;;6.50;99.90;;;;;;5107554;28;20150;-78
2022/02/06 15:08:10;;;;;;;5.60;1.00;;;4.60;99.90;;;;;;5084367;28;20051;-79
2022/02/06 15:10:37;;;;;;;4.10;1.00;;;3.70;99.90;;;;;;5086736;28;20115;-79
2022/02/06 15:13:04;;;;;;;5.05;0.80;;;4.30;99.90;;;;;;5102228;28;20042;-77
2022/02/06 15:15:35;;;;;;;7.30;0.68;;;4.20;99.90;;;;;;5104897;28;20051;-77
2022/02/06 15:18:10;;;;;;;4.88;0.65;;;4.60;99.90;;;;;;5090553;27;20049;-77
2022/02/06 15:20:36;;;;;;;5.28;0.57;;;4.80;99.90;;;;;;5104921;28;20047;-77
2022/02/06 15:23:06;;;;;;;3.33;0.47;;;4.30;99.90;;;;;;5088555;28;20482;-77
2022/02/06 15:25:35;;;;;;;3.65;0.52;;;4.30;99.90;;;;;;5087378;28;20039;-77
2022/02/06 15:28:01;;;;;;;6.45;0.70;;;4.40;99.90;;;;;;5088121;28;20381;-80
2022/02/06 15:30:27;;;;;;;3.83;0.65;;;4.40;99.90;;;;;;5088785;28;20137;-78
2022/02/06 15:32:52;;;;;;;4.07;0.65;;;4.50;99.90;;;;;;5106271;28;20035;-80
2022/02/06 15:35:19;;;;;;;5.70;1.17;;;4.50;99.90;;;;;;5074828;28;20146;-80
2022/02/06 15:37:47;;;;;;;7.65;1.02;;;4.50;99.90;;;;;;5105714;27;20054;-79
2022/02/06 15:40:16;;;;;;;3.95;0.82;;;4.40;99.90;;;;;;5091837;27;20554;-80
2022/02/06 15:42:43;;;;;;;6.57;1.05;;;4.80;99.90;;;;;;5079006;27;20385;-80
2022/02/06 15:45:09;;;;;;;14.57;1.55;;;4.50;99.90;;;;;;5115154;27;20535;-80
2022/02/06 15:47:34;;;;;;;9.30;0.90;;;4.50;99.90;;;;;;5100333;28;20040;-80
2022/02/06 15:50:11;;;;;;;12.75;1.08;;;4.40;99.90;;;;;;5094996;27;20032;-81
2022/02/06 15:52:40;;;;;;;5.60;0.82;;;4.50;99.90;;;;;;5098232;27;20051;-81
2022/02/06 15:55:06;;;;;;;6.38;0.98;;;4.70;99.90;;;;;;5089934;27;20126;-80
2022/02/06 15:57:33;;;;;;;5.53;1.10;;;4.50;99.90;;;;;;5088805;27;20451;-82
2022/02/06 15:59:59;;;;;;;4.75;0.43;;;4.60;99.90;;;;;;5111034;27;20035;-82
2022/02/06 16:02:25;;;;;;;5.03;0.50;;;4.50;99.90;;;;;;5112778;27;20374;-78
2022/02/06 16:04:51;;;;;;;4.47;0.65;;;4.40;99.90;;;;;;5106774;27;20051;-78
2022/02/06 16:07:17;;;;;;;3.53;0.50;;;4.30;99.90;;;;;;5109758;27;20046;-80
2022/02/06 16:09:43;;;;;;;4.75;0.43;;;4.60;99.90;;;;;;5109822;27;20073;-79
2022/02/06 16:12:10;;;;;;;6.05;0.57;;;4.30;99.90;;;;;;5130218;27;20035;-80
2022/02/06 16:14:39;;;;;;;3.67;0.50;;;4.20;99.90;;;;;;5112484;27;20308;-78
2022/02/06 16:17:06;;;;;;;2.47;0.43;;;4.20;99.90;;;;;;5112495;27;20443;-79
2022/02/06 16:19:33;;;;;;;3.40;0.65;;;4.30;99.90;;;;;;5092720;27;20051;-78
2022/02/06 16:22:01;;;;;;;5.05;0.60;;;4.30;99.90;;;;;;5088537;27;20043;-80
2022/02/06 16:24:26;;;;;;;1.88;0.43;;;4.10;99.90;;;;;;5090401;27;20051;-78
2022/02/06 16:26:52;;;;;;;3.08;0.50;;;4.10;99.90;;;;;;5107422;27;20047;-81
2022/02/06 16:29:18;;;;;;;3.40;0.45;;;4.10;99.90;;;;;;5108250;27;20027;-81
2022/02/06 16:31:44;;;;;;;3.92;0.60;;;4.20;99.90;;;;;;5108952;27;20066;-82
2022/02/06 16:34:09;;;;;;;3.17;0.65;;;4.30;99.90;;;;;;5108257;27;20081;-80
2022/02/06 16:36:35;;;;;;;1.23;0.40;;;4.70;99.90;;;;;;5091484;27;20051;-81
2022/02/06 16:39:01;;;;;;;1.88;0.60;;;4.40;99.90;;;;;;5091559;27;20062;-81
2022/02/06 16:41:27;;;;;;;1.83;0.40;;;4.40;99.90;;;;;;5116689;27;20038;-80
2022/02/06 16:43:53;;;;;;;4.40;0.40;;;4.40;99.90;;;;;;5109608;27;20043;-81
2022/02/06 16:46:21;;;;;;;1.33;0.50;;;4.30;99.90;;;;;;5110612;27;20058;-80
2022/02/06 16:48:47;;;;;;;2.45;1.10;;;4.70;99.90;;;;;;5095667;27;20059;-77
2022/02/06 16:51:13;;;;;;;3.28;1.00;;;4.20;99.90;;;;;;5104729;27;20046;-83
2022/02/06 16:53:41;;;;;;;6.15;1.10;;;4.60;99.90;;;;;;5106339;27;20061;-78
2022/02/06 16:56:07;;;;;;;3.10;0.88;;;4.10;99.90;;;;;;5087763;27;20046;-76
2022/02/06 16:58:37;;;;;;;4.63;0.70;;;4.20;99.90;;;;;;5098728;28;20032;-83
2022/02/06 17:01:02;;;;;;;2.28;0.60;;;4.30;99.90;;;;;;5089378;27;20039;-79
2022/02/06 17:03:28;;;;;;;5.28;1.25;;;4.30;99.90;;;;;;5091132;27;20427;-81
2022/02/06 17:05:54;;;;;;;2.85;0.55;;;4.30;99.90;;;;;;5106613;27;20046;-81
2022/02/06 17:08:20;;;;;;;5.70;0.88;;;4.40;99.90;;;;;;5090987;27;20512;-85
2022/02/06 17:10:47;;;;;;;5.70;0.60;;;5.20;99.90;;;;;;5091562;27;20031;-81
2022/02/06 17:13:14;;;;;;;7.63;0.80;;;5.50;99.90;;;;;;5096690;27;20047;-84
2022/02/06 17:15:45;;;;;;;6.30;0.73;;;5.30;99.90;;;;;;5081467;27;20047;-82
2022/02/06 17:18:21;;;;;;;2.63;0.52;;;5.30;99.90;;;;;;5095411;27;20055;-85
2022/02/06 17:20:47;;;;;;;6.20;0.70;;;4.60;99.90;;;;;;5088550;27;20084;-81
2022/02/06 17:23:12;;;;;;;4.55;0.82;;;4.00;99.90;;;;;;5109299;27;20043;-79
2022/02/06 17:25:38;;;;;;;3.80;1.02;;;4.00;99.90;;;;;;5110274;27;20039;-80
2022/02/06 17:28:04;;;;;;;4.55;1.00;;;4.10;99.90;;;;;;5116405;27;20121;-79
2022/02/06 17:30:31;;;;;;;5.38;1.63;;;3.70;99.90;;;;;;5112236;27;20066;-79
2022/02/06 17:32:57;;;;;;;2.65;0.90;;;3.70;99.90;;;;;;5107844;27;20043;-80
2022/02/06 17:35:23;;;;;;;5.50;1.70;;;3.80;99.90;;;;;;5111502;27;20519;-80
2022/02/06 17:37:49;;;;;;;2.47;1.00;;;3.60;99.90;;;;;;5110624;27;20154;-80
2022/02/06 17:40:16;;;;;;;6.55;2.97;;;3.50;99.90;;;;;;5118679;27;20034;-80
2022/02/06 17:42:46;;;;;;;5.47;2.30;;;3.50;99.90;;;;;;5094689;27;20064;-80
2022/02/06 17:45:14;;;;;;;2.83;1.40;;;3.40;99.90;;;;;;5108514;27;20127;-80
2022/02/06 17:47:43;;;;;;;5.07;2.60;;;3.40;99.90;;;;;;5098617;27;20112;-79
2022/02/06 17:50:15;;;;;;;7.00;4.00;;;3.40;99.90;;;;;;5111843;27;20063;-79
2022/02/06 17:52:41;;;;;;;13.30;8.18;;;3.40;99.90;;;;;;5107612;27;20063;-78
2022/02/06 17:55:07;;;;;;;3.97;2.00;;;3.30;99.90;;;;;;5110265;27;20062;-80
2022/02/06 17:57:33;;;;;;;40.63;18.25;;;3.30;99.90;;;;;;5105270;27;20031;-79
2022/02/06 17:59:59;;;;;;;5.55;0.85;;;3.50;99.90;;;;;;5106879;27;20394;-78